Lexa Maersk — OYYL2 — position and weather

sailwx.info

Track history (hours):
 
Tides and Currents Weather Stations Pressure Air Temp Water Temp Dewpoint Dewpoint Depression Visibility Wind Speed Wind Dir Waves Ship Positions

Lexa Maersk

Last reported at 2019-Mar-25 08:14 UTC. Time now 2019-Mar-25 09:31 UTC.
Position N 31°58' W 080°16'.

Length 265.8 m; beam 37.3 m; draft 14 m.

Type: Ship (hazmat cat A). MMSI: 219979000.

Date/timePositionNaut miles runAvg speedWind from/ knotsBaromVisibWave heightAir tempDewpointWater temp
2019-Mar-25 08:14N 31°58' W 080°16'2 7.1
2019-Mar-25 08:00N 31°58' W 080°14'28 5.6
2019-Mar-25 03:00N 32°06' W 079°42'109 9.1 160 / 151023.310.8 19.213.817.5
2019-Mar-24 15:00N 33°06' W 077°54'14612.1 130 / 91028.610.8 18.4 1.922.0
2019-Mar-24 03:00N 34°36' W 075°36'8210.2 320 / 141025.910.8 15.6-1.722.0
2019-Mar-23 19:00N 35°48' W 074°48'4912.2 280 / 141022.010.8 9.8-5.113.4
2019-Mar-23 15:00N 36°36' W 074°36'17312.0 290 / 311019.810.8 6.8-0.811.1
2019-Mar-23 00:38N 39°26' W 073°57'212.2
2019-Mar-23 00:30N 39°27' W 073°56'1312.3
2019-Mar-22 23:28N 39°40' W 073°53'612.4
2019-Mar-22 23:00N 39°46' W 073°52'713.0
2019-Mar-22 22:26N 39°53' W 073°52'819.6
2019-Mar-22 22:01N 40°01' W 073°51'2012.4
2019-Mar-22 20:23N 40°21' W 073°49'4 9.4
2019-Mar-22 19:56N 40°26' W 073°49'510.6
2019-Mar-22 19:30N 40°29' W 073°53'816.1
2019-Mar-22 19:01N 40°34' W 074°02'612.1
2019-Mar-22 18:30N 40°39' W 074°06'3 5.6
2019-Mar-22 18:00N 40°39' W 074°10'1 3.0
2019-Mar-22 17:30N 40°38' W 074°11'0 0.0
2019-Mar-22 17:00N 40°38' W 074°11'0 0.0
2019-Mar-22 16:30N 40°38' W 074°11'0 0.0
2019-Mar-22 16:00N 40°38' W 074°11'0 0.0
2019-Mar-22 15:30N 40°38' W 074°11'0 0.0
2019-Mar-22 15:00N 40°38' W 074°11'0 0.0
2019-Mar-22 14:30N 40°38' W 074°11'0 0.0
2019-Mar-22 14:00N 40°38' W 074°11'0 0.0
2019-Mar-22 13:30N 40°38' W 074°11'0 0.0
2019-Mar-22 13:00N 40°38' W 074°11'0 0.0
2019-Mar-22 12:30N 40°38' W 074°11'0 0.0
2019-Mar-22 12:00N 40°38' W 074°11'0 0.0
2019-Mar-22 11:30N 40°38' W 074°11'0 0.2
2019-Mar-22 10:39N 40°39' W 074°11'1 4.8
2019-Mar-22 10:28N 40°39' W 074°10'2 3.4
2019-Mar-22 09:58N 40°40' W 074°09'1 1.7
2019-Mar-22 09:18N 40°41' W 074°09'0 0.0
2019-Mar-22 08:47N 40°41' W 074°09'0 0.0
2019-Mar-22 07:47N 40°41' W 074°09'0 0.0
2019-Mar-22 05:41N 40°41' W 074°09'0 0.0
2019-Mar-22 05:02N 40°41' W 074°09'0 0.0
2019-Mar-22 04:49N 40°41' W 074°09'0 0.0
2019-Mar-22 04:30N 40°41' W 074°09'0 0.0
2019-Mar-22 03:56N 40°41' W 074°09'0 0.0
2019-Mar-22 03:27N 40°41' W 074°09'0 0.0
2019-Mar-22 02:57N 40°41' W 074°09'0 0.0
2019-Mar-22 02:30N 40°41' W 074°09'0 0.0
2019-Mar-22 02:00N 40°41' W 074°09'0 0.0
2019-Mar-22 01:28N 40°41' W 074°09'0 0.0
2019-Mar-22 00:53N 40°41' W 074°09'0 0.0
2019-Mar-22 00:28N 40°41' W 074°09'0 0.0
2019-Mar-21 23:57N 40°41' W 074°09'0 0.0
2019-Mar-21 22:24N 40°41' W 074°09'0 0.0
2019-Mar-21 21:31N 40°41' W 074°09'0 0.0
2019-Mar-21 20:21N 40°41' W 074°09'0 0.0
2019-Mar-21 18:10N 40°41' W 074°09'0 0.0
2019-Mar-21 17:36N 40°41' W 074°09'0 0.0
2019-Mar-21 17:22N 40°41' W 074°09'0 0.0
2019-Mar-21 16:15N 40°41' W 074°09'0 0.0
2019-Mar-21 15:51N 40°41' W 074°09'1 1.1
2019-Mar-21 15:14N 40°41' W 074°08'1 2.4
2019-Mar-21 14:42N 40°39' W 074°09'2 3.3
2019-Mar-21 14:08N 40°39' W 074°06'4 6.0
2019-Mar-21 13:30N 40°36' W 074°03'1111.6
2019-Mar-21 12:32N 40°28' W 073°52'0 9.2
2019-Mar-21 12:30N 40°28' W 073°52'16 8.5
2019-Mar-21 10:37N 40°28' W 073°31'11915.6
2019-Mar-21 03:00N 40°30' W 070°54'11412.7 130 / 151028.210.8 4.6 0.4 3.9
2019-Mar-20 18:00N 40°24' W 068°24'5217.2 200 / 31030.010.8 6.5-3.4 5.6
2019-Mar-20 15:00N 40°12' W 067°18'19316.1 150 / 71032.210.8 6.9-4.313.3
2019-Mar-20 03:00N 40°00' W 063°06'20717.2 150 / 101028.710.8 5.0-1.916.4
2019-Mar-19 15:00N 40°06' W 058°36'25719.8 040 / 211023.7 5.4 8.0 5.817.0
2019-Mar-19 02:00N 40°12' W 053°00'15118.9 360 / 301020.110.8 7.2 6.814.8
2019-Mar-18 18:00N 40°18' W 049°42'32520.3 050 / 211018.8 5.4 11.010.018.6
2019-Mar-18 02:00N 40°30' W 042°36'19216.0 190 / 221019.110.8 16.814.417.7
2019-Mar-17 14:00N 40°36' W 038°24'30023.1 180 / 171021.310.8 18.015.517.2
2019-Mar-17 01:00N 40°48' W 031°48'8719.1 170 / 201023.4 5.4 16.015.516.3
2019-Mar-16 20:28N 40°52' W 029°54'919.7
2019-Mar-16 20:00N 40°52' W 029°42'1119.0
2019-Mar-16 19:25N 40°53' W 029°27'819.3
2019-Mar-16 19:00N 40°54' W 029°16'1019.8
2019-Mar-16 18:30N 40°54' W 029°03'3422.6
2019-Mar-16 17:00N 40°54' W 028°18'6817.0 210 / 161020.5 5.4 15.515.515.5
2019-Mar-16 13:00N 40°54' W 026°48'25819.8 230 / 201020.9 5.4 16.015.115.3
2019-Mar-16 00:00N 41°48' W 021°12'23919.9 200 / 191024.010.8 12.811.114.4
2019-Mar-15 12:00N 43°18' W 016°12'   210 / 111031.010.8 11.5 4.913.3
Track history (hours):
 
Tides and Currents Weather Stations Pressure Air Temp Water Temp Dewpoint Dewpoint Depression Visibility Wind Speed Wind Dir Waves Ship Positions

Lexa Maersk

Last reported at 2019-Mar-25 08:14 UTC. Time now 2019-Mar-25 09:31 UTC.
Position N 31°58' W 080°16'.

Length 265.8 m; beam 37.3 m; draft 14 m.

Type: Ship (hazmat cat A). MMSI: 219979000.

Date/timePositionNaut miles runAvg speedWind from/ knotsBaromVisibWave heightAir tempDewpointWater temp
2019-Mar-25 08:14N 31°58' W 080°16'2 7.1
2019-Mar-25 08:00N 31°58' W 080°14'28 5.6
2019-Mar-25 03:00N 32°06' W 079°42'109 9.1 160 / 151023.310.8 19.213.817.5
2019-Mar-24 15:00N 33°06' W 077°54'14612.1 130 / 91028.610.8 18.4 1.922.0
2019-Mar-24 03:00N 34°36' W 075°36'8210.2 320 / 141025.910.8 15.6-1.722.0
2019-Mar-23 19:00N 35°48' W 074°48'4912.2 280 / 141022.010.8 9.8-5.113.4
2019-Mar-23 15:00N 36°36' W 074°36'17312.0 290 / 311019.810.8 6.8-0.811.1
2019-Mar-23 00:38N 39°26' W 073°57'212.2
2019-Mar-23 00:30N 39°27' W 073°56'1312.3
2019-Mar-22 23:28N 39°40' W 073°53'612.4
2019-Mar-22 23:00N 39°46' W 073°52'713.0
2019-Mar-22 22:26N 39°53' W 073°52'819.6
2019-Mar-22 22:01N 40°01' W 073°51'2012.4
2019-Mar-22 20:23N 40°21' W 073°49'4 9.4
2019-Mar-22 19:56N 40°26' W 073°49'510.6
2019-Mar-22 19:30N 40°29' W 073°53'816.1
2019-Mar-22 19:01N 40°34' W 074°02'612.1
2019-Mar-22 18:30N 40°39' W 074°06'3 5.6
2019-Mar-22 18:00N 40°39' W 074°10'1 3.0
2019-Mar-22 17:30N 40°38' W 074°11'0 0.0
2019-Mar-22 17:00N 40°38' W 074°11'0 0.0
2019-Mar-22 16:30N 40°38' W 074°11'0 0.0
2019-Mar-22 16:00N 40°38' W 074°11'0 0.0
2019-Mar-22 15:30N 40°38' W 074°11'0 0.0
2019-Mar-22 15:00N 40°38' W 074°11'0 0.0
2019-Mar-22 14:30N 40°38' W 074°11'0 0.0
2019-Mar-22 14:00N 40°38' W 074°11'0 0.0
2019-Mar-22 13:30N 40°38' W 074°11'0 0.0
2019-Mar-22 13:00N 40°38' W 074°11'0 0.0
2019-Mar-22 12:30N 40°38' W 074°11'0 0.0
2019-Mar-22 12:00N 40°38' W 074°11'0 0.0
2019-Mar-22 11:30N 40°38' W 074°11'0 0.2
2019-Mar-22 10:39N 40°39' W 074°11'1 4.8
2019-Mar-22 10:28N 40°39' W 074°10'2 3.4
2019-Mar-22 09:58N 40°40' W 074°09'1 1.7
2019-Mar-22 09:18N 40°41' W 074°09'0 0.0
2019-Mar-22 08:47N 40°41' W 074°09'0 0.0
2019-Mar-22 07:47N 40°41' W 074°09'0 0.0
2019-Mar-22 05:41N 40°41' W 074°09'0 0.0
2019-Mar-22 05:02N 40°41' W 074°09'0 0.0
2019-Mar-22 04:49N 40°41' W 074°09'0 0.0
2019-Mar-22 04:30N 40°41' W 074°09'0 0.0
2019-Mar-22 03:56N 40°41' W 074°09'0 0.0
2019-Mar-22 03:27N 40°41' W 074°09'0 0.0
2019-Mar-22 02:57N 40°41' W 074°09'0 0.0
2019-Mar-22 02:30N 40°41' W 074°09'0 0.0
2019-Mar-22 02:00N 40°41' W 074°09'0 0.0
2019-Mar-22 01:28N 40°41' W 074°09'0 0.0
2019-Mar-22 00:53N 40°41' W 074°09'0 0.0
2019-Mar-22 00:28N 40°41' W 074°09'0 0.0
2019-Mar-21 23:57N 40°41' W 074°09'0 0.0
2019-Mar-21 22:24N 40°41' W 074°09'0 0.0
2019-Mar-21 21:31N 40°41' W 074°09'0 0.0
2019-Mar-21 20:21N 40°41' W 074°09'0 0.0
2019-Mar-21 18:10N 40°41' W 074°09'0 0.0
2019-Mar-21 17:36N 40°41' W 074°09'0 0.0
2019-Mar-21 17:22N 40°41' W 074°09'0 0.0
2019-Mar-21 16:15N 40°41' W 074°09'0 0.0
2019-Mar-21 15:51N 40°41' W 074°09'1 1.1
2019-Mar-21 15:14N 40°41' W 074°08'1 2.4
2019-Mar-21 14:42N 40°39' W 074°09'2 3.3
2019-Mar-21 14:08N 40°39' W 074°06'4 6.0
2019-Mar-21 13:30N 40°36' W 074°03'1111.6
2019-Mar-21 12:32N 40°28' W 073°52'0 9.2
2019-Mar-21 12:30N 40°28' W 073°52'16 8.5
2019-Mar-21 10:37N 40°28' W 073°31'11915.6
2019-Mar-21 03:00N 40°30' W 070°54'11412.7 130 / 151028.210.8 4.6 0.4 3.9
2019-Mar-20 18:00N 40°24' W 068°24'5217.2 200 / 31030.010.8 6.5-3.4 5.6
2019-Mar-20 15:00N 40°12' W 067°18'19316.1 150 / 71032.210.8 6.9-4.313.3
2019-Mar-20 03:00N 40°00' W 063°06'20717.2 150 / 101028.710.8 5.0-1.916.4
2019-Mar-19 15:00N 40°06' W 058°36'25719.8 040 / 211023.7 5.4 8.0 5.817.0
2019-Mar-19 02:00N 40°12' W 053°00'15118.9 360 / 301020.110.8 7.2 6.814.8
2019-Mar-18 18:00N 40°18' W 049°42'32520.3 050 / 211018.8 5.4 11.010.018.6
2019-Mar-18 02:00N 40°30' W 042°36'19216.0 190 / 221019.110.8 16.814.417.7
2019-Mar-17 14:00N 40°36' W 038°24'30023.1 180 / 171021.310.8 18.015.517.2
2019-Mar-17 01:00N 40°48' W 031°48'8719.1 170 / 201023.4 5.4 16.015.516.3
2019-Mar-16 20:28N 40°52' W 029°54'919.7
2019-Mar-16 20:00N 40°52' W 029°42'1119.0
2019-Mar-16 19:25N 40°53' W 029°27'819.3
2019-Mar-16 19:00N 40°54' W 029°16'1019.8
2019-Mar-16 18:30N 40°54' W 029°03'3422.6
2019-Mar-16 17:00N 40°54' W 028°18'6817.0 210 / 161020.5 5.4 15.515.515.5
2019-Mar-16 13:00N 40°54' W 026°48'25819.8 230 / 201020.9 5.4 16.015.115.3
2019-Mar-16 00:00N 41°48' W 021°12'23919.9 200 / 191024.010.8 12.811.114.4
2019-Mar-15 12:00N 43°18' W 016°12'   210 / 111031.010.8 11.5 4.913.3

Dump ship's entire track history